Time;durP1;ratioP1;P1;durP2;ratioP2;P2;SDS_P1;SDS_P2;PMS_P1;PMS_P2;Temp;Humidity;BMP_temperature;BMP_pressure;BME280_temperature;BME280_humidity;BME280_pressure;Samples;Min_cycle;Max_cycle;Signal;HPM_P1;HPM_P2
2023/09/30 00:00:26;;;;;;;17.30;4.78;;;12.00;99.90;;;;;;5002109;28;20630;-50
2023/09/30 00:02:52;;;;;;;20.58;4.82;;;12.00;99.90;;;;;;5003413;28;20057;-53
2023/09/30 00:05:19;;;;;;;19.23;4.68;;;12.10;99.90;;;;;;5003389;28;20034;-50
2023/09/30 00:07:46;;;;;;;18.98;4.35;;;12.10;99.90;;;;;;5002770;28;20128;-50
2023/09/30 00:10:11;;;;;;;18.60;4.65;;;11.90;99.90;;;;;;5005669;28;20050;-50
2023/09/30 00:12:38;;;;;;;17.25;5.03;;;12.00;99.90;;;;;;5006629;28;20137;-50
2023/09/30 00:15:04;;;;;;;18.58;5.05;;;11.90;99.90;;;;;;5005269;28;20042;-50
2023/09/30 00:17:30;;;;;;;18.08;4.95;;;11.90;99.90;;;;;;5006863;28;20048;-50
2023/09/30 00:19:56;;;;;;;17.45;4.78;;;12.00;99.90;;;;;;5007135;28;20120;-52
2023/09/30 00:22:21;;;;;;;16.98;4.53;;;12.10;99.90;;;;;;5005722;28;20060;-52
2023/09/30 00:24:48;;;;;;;19.20;5.25;;;12.30;99.90;;;;;;5006958;28;20129;-52
2023/09/30 00:27:13;;;;;;;19.27;5.10;;;12.10;99.90;;;;;;5006533;28;20097;-50
2023/09/30 00:29:39;;;;;;;20.27;5.15;;;12.00;99.90;;;;;;5005862;28;20615;-50
2023/09/30 00:32:05;;;;;;;14.90;4.80;;;11.90;99.90;;;;;;5005494;28;20129;-52
2023/09/30 00:34:34;;;;;;;17.23;4.65;;;12.00;99.90;;;;;;5006739;28;20085;-51
2023/09/30 00:37:00;;;;;;;17.40;4.60;;;11.90;99.90;;;;;;5006079;28;20081;-52
2023/09/30 00:39:29;;;;;;;19.30;4.78;;;11.90;99.90;;;;;;5005732;28;20084;-51
2023/09/30 00:41:56;;;;;;;18.58;4.57;;;11.90;99.90;;;;;;5005931;28;20437;-51
2023/09/30 00:44:21;;;;;;;15.75;4.50;;;11.90;99.90;;;;;;4988167;28;20479;-53
2023/09/30 00:46:47;;;;;;;15.15;4.40;;;11.90;99.90;;;;;;5005630;28;20129;-53
2023/09/30 00:49:14;;;;;;;21.33;5.10;;;11.90;99.90;;;;;;5004911;28;20042;-52
2023/09/30 00:51:39;;;;;;;21.90;5.15;;;12.00;99.90;;;;;;5005725;28;20105;-50
2023/09/30 00:54:06;;;;;;;16.58;5.10;;;11.80;99.90;;;;;;5006319;28;20442;-52
2023/09/30 00:56:32;;;;;;;16.85;5.07;;;11.90;99.90;;;;;;5008731;28;20160;-51
2023/09/30 00:58:59;;;;;;;18.98;4.70;;;11.90;99.90;;;;;;5011918;28;20053;-52
2023/09/30 01:01:25;;;;;;;20.38;4.72;;;11.90;99.90;;;;;;5009108;28;20037;-52
2023/09/30 01:03:51;;;;;;;16.02;4.68;;;12.00;99.90;;;;;;5024998;28;20081;-49
2023/09/30 01:06:17;;;;;;;20.60;4.57;;;12.00;99.90;;;;;;5024523;28;20040;-51
2023/09/30 01:08:43;;;;;;;24.45;5.47;;;12.10;99.90;;;;;;5023819;28;20115;-53
2023/09/30 01:11:09;;;;;;;14.35;4.68;;;12.10;99.90;;;;;;5005589;28;20440;-52
2023/09/30 01:13:36;;;;;;;20.05;5.65;;;11.90;99.90;;;;;;5010948;28;20044;-52
2023/09/30 01:16:09;;;;;;;12.50;4.30;;;12.00;99.90;;;;;;5013638;28;20041;-53
2023/09/30 01:18:36;;;;;;;18.40;4.63;;;11.80;99.90;;;;;;4988052;28;20053;-53
2023/09/30 01:21:07;;;;;;;22.23;5.25;;;11.80;99.90;;;;;;5003284;28;20066;-50
2023/09/30 01:23:33;;;;;;;17.90;4.88;;;11.80;99.90;;;;;;5005502;28;20053;-52
2023/09/30 01:26:03;;;;;;;16.98;5.22;;;11.70;99.90;;;;;;5006172;28;20052;-53
2023/09/30 01:28:30;;;;;;;17.13;4.95;;;11.80;99.90;;;;;;4985916;28;20054;-51
2023/09/30 01:30:56;;;;;;;21.58;4.80;;;11.80;99.90;;;;;;5005692;28;20061;-50
2023/09/30 01:33:23;;;;;;;16.70;5.10;;;11.80;99.90;;;;;;5005469;28;20550;-53
2023/09/30 01:35:48;;;;;;;18.00;4.90;;;11.80;99.90;;;;;;5006322;28;20137;-52
2023/09/30 01:38:14;;;;;;;16.55;4.80;;;11.80;99.90;;;;;;5011477;28;20041;-51
2023/09/30 01:40:40;;;;;;;17.85;4.88;;;11.80;99.90;;;;;;5006589;28;20048;-52
2023/09/30 01:43:05;;;;;;;17.70;5.30;;;11.80;99.90;;;;;;5007106;28;20472;-52
2023/09/30 01:45:31;;;;;;;17.40;4.85;;;11.80;99.90;;;;;;5023439;28;20041;-52
2023/09/30 01:47:56;;;;;;;18.98;4.93;;;11.90;99.90;;;;;;5023874;28;20049;-50
2023/09/30 01:50:22;;;;;;;14.40;5.13;;;11.90;99.90;;;;;;5018436;28;20057;-50
2023/09/30 01:52:48;;;;;;;15.18;4.75;;;11.90;99.90;;;;;;4985331;28;20085;-50
2023/09/30 01:55:13;;;;;;;23.45;5.10;;;11.80;99.90;;;;;;5004068;28;20050;-52
2023/09/30 01:57:39;;;;;;;11.55;4.07;;;11.80;99.90;;;;;;5015345;28;20737;-49
2023/09/30 02:00:09;;;;;;;21.05;4.55;;;11.80;99.90;;;;;;5003201;28;20532;-49
2023/09/30 02:02:36;;;;;;;15.25;4.70;;;11.80;99.90;;;;;;5003583;28;20038;-49
2023/09/30 02:05:02;;;;;;;19.80;5.28;;;11.90;99.90;;;;;;5003973;28;20042;-51
2023/09/30 02:07:29;;;;;;;17.48;4.43;;;11.80;99.90;;;;;;5003908;28;20129;-51
2023/09/30 02:09:55;;;;;;;13.48;4.45;;;11.80;99.90;;;;;;5003550;28;20183;-50
2023/09/30 02:12:21;;;;;;;16.33;4.65;;;12.10;99.90;;;;;;5003767;28;20468;-52
2023/09/30 02:14:46;;;;;;;14.80;5.32;;;11.80;99.90;;;;;;5003192;28;20130;-51
2023/09/30 02:17:13;;;;;;;19.00;4.97;;;11.80;99.90;;;;;;5003968;28;20488;-52
2023/09/30 02:19:40;;;;;;;15.25;5.18;;;11.80;99.90;;;;;;5004212;28;20658;-49
2023/09/30 02:22:06;;;;;;;18.08;4.90;;;11.80;99.90;;;;;;5004538;28;20104;-50
2023/09/30 02:24:32;;;;;;;14.27;4.65;;;11.80;99.90;;;;;;5004062;28;20046;-50
2023/09/30 02:26:58;;;;;;;13.45;4.80;;;11.80;99.90;;;;;;5003468;28;20037;-48
2023/09/30 02:29:23;;;;;;;15.05;4.32;;;11.80;99.90;;;;;;5003884;28;20042;-52
2023/09/30 02:31:49;;;;;;;14.23;4.88;;;11.80;99.90;;;;;;5004101;28;20412;-49
2023/09/30 02:34:15;;;;;;;18.77;5.60;;;11.70;99.90;;;;;;5003393;28;20086;-50
2023/09/30 02:36:41;;;;;;;18.52;5.10;;;11.70;99.90;;;;;;5003886;28;20038;-52
2023/09/30 02:39:09;;;;;;;11.90;4.25;;;11.80;99.90;;;;;;5004416;28;20124;-52
2023/09/30 02:41:35;;;;;;;17.73;4.68;;;11.80;99.90;;;;;;5004169;28;20107;-52
2023/09/30 02:44:01;;;;;;;18.63;4.82;;;11.70;99.90;;;;;;5003456;28;20120;-52
2023/09/30 02:46:28;;;;;;;16.85;4.78;;;11.70;99.90;;;;;;4986495;28;20121;-51
2023/09/30 02:48:53;;;;;;;11.88;4.40;;;11.90;99.90;;;;;;5003556;28;20045;-52
2023/09/30 02:51:19;;;;;;;16.30;4.70;;;11.70;99.90;;;;;;5003224;28;20069;-50
2023/09/30 02:53:46;;;;;;;17.63;5.25;;;11.70;99.90;;;;;;5004019;28;20042;-50
2023/09/30 02:56:11;;;;;;;17.65;5.53;;;11.70;99.90;;;;;;5006192;28;20053;-48
2023/09/30 02:58:38;;;;;;;15.15;4.70;;;11.60;99.90;;;;;;5011286;28;20050;-50
2023/09/30 03:01:04;;;;;;;18.13;5.15;;;11.60;99.90;;;;;;5003498;28;20050;-50
2023/09/30 03:03:30;;;;;;;13.90;4.82;;;12.10;99.90;;;;;;4986223;28;20045;-52
2023/09/30 03:05:57;;;;;;;18.40;5.05;;;11.60;99.90;;;;;;5004141;28;20056;-50
2023/09/30 03:08:25;;;;;;;13.85;4.70;;;11.70;99.90;;;;;;5001486;28;20424;-50
2023/09/30 03:10:50;;;;;;;14.80;4.72;;;11.60;99.90;;;;;;5003554;28;20054;-52
2023/09/30 03:13:18;;;;;;;19.25;5.07;;;11.60;99.90;;;;;;5003000;28;20746;-50
2023/09/30 03:15:44;;;;;;;16.50;5.20;;;11.60;99.90;;;;;;5002725;28;20041;-52
2023/09/30 03:18:11;;;;;;;15.77;5.38;;;11.60;99.90;;;;;;5003253;28;20514;-52
2023/09/30 03:20:40;;;;;;;16.05;5.22;;;11.50;99.90;;;;;;4986084;28;20053;-50
2023/09/30 03:23:06;;;;;;;14.43;5.03;;;11.60;99.90;;;;;;5002856;28;20074;-51
2023/09/30 03:25:32;;;;;;;18.05;5.45;;;11.60;99.90;;;;;;5003971;28;20066;-52
2023/09/30 03:27:58;;;;;;;18.13;5.18;;;11.60;99.90;;;;;;5003164;28;20420;-53
2023/09/30 03:30:24;;;;;;;18.30;5.50;;;11.60;99.90;;;;;;5003474;28;20088;-50
2023/09/30 03:32:50;;;;;;;18.17;5.07;;;11.60;99.90;;;;;;5001962;28;20151;-51
2023/09/30 03:35:18;;;;;;;15.45;5.45;;;11.60;99.90;;;;;;5003291;28;20104;-50
2023/09/30 03:37:48;;;;;;;15.75;5.30;;;11.60;99.90;;;;;;5006127;28;20045;-52
2023/09/30 03:40:14;;;;;;;16.13;5.18;;;11.60;99.90;;;;;;5006118;28;20135;-53
2023/09/30 03:42:43;;;;;;;18.40;5.40;;;12.00;99.90;;;;;;5023441;28;20053;-50
2023/09/30 03:45:10;;;;;;;12.40;5.50;;;11.60;99.90;;;;;;5025107;28;20042;-50
2023/09/30 03:47:37;;;;;;;13.45;5.20;;;11.60;99.90;;;;;;4988025;28;20054;-51
2023/09/30 03:50:04;;;;;;;16.30;5.70;;;11.60;99.90;;;;;;5007695;28;20056;-52
2023/09/30 03:52:32;;;;;;;15.50;5.32;;;11.60;99.90;;;;;;4989667;28;20077;-49
2023/09/30 03:55:05;;;;;;;16.98;5.78;;;11.50;99.90;;;;;;5007217;28;20042;-51
2023/09/30 03:57:36;;;;;;;16.67;5.95;;;11.50;99.90;;;;;;5017929;28;20065;-49
2023/09/30 04:00:05;;;;;;;15.30;5.47;;;11.50;99.90;;;;;;5006938;28;20128;-50
2023/09/30 04:02:31;;;;;;;13.52;5.50;;;11.50;99.90;;;;;;5007037;28;20128;-50
2023/09/30 04:04:57;;;;;;;18.20;5.53;;;11.50;99.90;;;;;;5006740;28;20133;-51
2023/09/30 04:07:27;;;;;;;17.55;5.78;;;11.50;99.90;;;;;;5006895;28;20046;-50
2023/09/30 04:09:55;;;;;;;18.85;6.28;;;11.50;99.90;;;;;;5006296;28;20061;-53
2023/09/30 04:12:22;;;;;;;18.33;5.80;;;11.50;99.90;;;;;;5006969;28;20046;-50
2023/09/30 04:14:48;;;;;;;18.10;6.50;;;11.50;99.90;;;;;;5006381;28;20077;-50
2023/09/30 04:17:14;;;;;;;19.98;6.45;;;11.50;99.90;;;;;;5006623;28;20405;-49
2023/09/30 04:19:39;;;;;;;16.70;6.05;;;11.40;99.90;;;;;;4988280;28;20041;-49
2023/09/30 04:22:05;;;;;;;17.52;6.47;;;11.50;99.90;;;;;;5006770;28;20046;-52
2023/09/30 04:24:30;;;;;;;16.15;5.93;;;11.50;99.90;;;;;;5006786;28;20724;-52
2023/09/30 04:27:02;;;;;;;20.98;6.07;;;11.50;99.90;;;;;;5005668;28;20037;-49
2023/09/30 04:29:29;;;;;;;16.73;5.93;;;11.70;99.90;;;;;;4988331;28;20053;-53
2023/09/30 04:31:58;;;;;;;20.38;6.35;;;11.50;99.90;;;;;;5006339;28;20524;-52
2023/09/30 04:34:23;;;;;;;14.13;6.03;;;11.50;99.90;;;;;;5004503;28;20046;-52
2023/09/30 04:36:49;;;;;;;17.45;6.47;;;11.50;99.90;;;;;;5005959;28;20096;-52
2023/09/30 04:39:15;;;;;;;19.30;6.43;;;11.70;99.90;;;;;;5006867;28;20087;-53
2023/09/30 04:41:41;;;;;;;18.60;6.60;;;11.90;99.90;;;;;;5005973;28;20111;-51
2023/09/30 04:44:09;;;;;;;21.08;7.22;;;11.40;99.90;;;;;;5004843;28;20046;-50
2023/09/30 04:46:35;;;;;;;19.85;7.03;;;11.40;99.90;;;;;;5006410;28;20077;-51
2023/09/30 04:49:04;;;;;;;18.33;6.85;;;11.50;99.90;;;;;;5006568;28;20053;-51
2023/09/30 04:51:32;;;;;;;18.85;6.78;;;11.50;99.90;;;;;;4988114;28;20104;-51
2023/09/30 04:53:59;;;;;;;18.77;6.53;;;11.50;99.90;;;;;;5006155;28;20052;-52
2023/09/30 04:56:25;;;;;;;19.88;6.85;;;11.50;99.90;;;;;;4991207;28;20100;-50
2023/09/30 04:58:51;;;;;;;21.13;6.95;;;11.40;99.90;;;;;;5012483;28;20054;-51
2023/09/30 05:01:18;;;;;;;18.15;7.05;;;11.50;99.90;;;;;;5005989;28;20077;-50
2023/09/30 05:03:44;;;;;;;16.77;6.68;;;11.50;99.90;;;;;;5006586;28;20148;-51
2023/09/30 05:06:10;;;;;;;17.30;6.72;;;11.40;99.90;;;;;;4987882;28;20475;-53
2023/09/30 05:08:35;;;;;;;20.88;7.40;;;11.40;99.90;;;;;;5005510;28;20056;-50
2023/09/30 05:11:01;;;;;;;18.63;7.32;;;11.40;99.90;;;;;;5024319;28;20033;-50
2023/09/30 05:13:27;;;;;;;18.85;6.95;;;11.40;99.90;;;;;;4990516;28;20049;-49
2023/09/30 05:15:53;;;;;;;21.08;7.00;;;11.40;99.90;;;;;;5006450;28;20041;-50
2023/09/30 05:18:18;;;;;;;16.23;7.45;;;11.40;99.90;;;;;;5025592;28;20088;-51
2023/09/30 05:20:44;;;;;;;19.73;7.43;;;11.40;99.90;;;;;;5025405;28;20069;-51
2023/09/30 05:23:12;;;;;;;23.60;7.18;;;11.70;99.90;;;;;;5006693;28;20080;-48
2023/09/30 05:25:39;;;;;;;19.67;7.60;;;11.30;99.90;;;;;;5024513;28;20041;-53
2023/09/30 05:28:06;;;;;;;19.17;7.32;;;11.30;99.90;;;;;;5024415;28;20049;-50
2023/09/30 05:30:33;;;;;;;22.70;7.25;;;11.30;99.90;;;;;;5007084;28;20045;-50
2023/09/30 05:33:00;;;;;;;22.73;7.75;;;11.30;99.90;;;;;;5024476;28;20099;-51
2023/09/30 05:35:26;;;;;;;17.65;7.05;;;11.40;99.90;;;;;;5007105;28;20173;-53
2023/09/30 05:37:52;;;;;;;22.45;8.15;;;11.30;99.90;;;;;;5024954;28;20369;-53
2023/09/30 05:40:25;;;;;;;19.10;7.75;;;11.40;99.90;;;;;;5024280;28;20082;-52
2023/09/30 05:42:57;;;;;;;20.67;7.80;;;11.40;99.90;;;;;;5024392;28;20044;-53
2023/09/30 05:45:23;;;;;;;19.25;7.35;;;11.40;99.90;;;;;;5016479;28;20096;-52
2023/09/30 05:47:49;;;;;;;20.70;7.70;;;11.40;99.90;;;;;;5016091;28;20400;-52
2023/09/30 05:50:16;;;;;;;20.80;7.85;;;11.40;99.90;;;;;;5024271;28;20093;-51
2023/09/30 05:52:45;;;;;;;20.60;7.72;;;11.40;99.90;;;;;;5007591;28;20085;-53
2023/09/30 05:55:11;;;;;;;20.90;7.80;;;11.40;99.90;;;;;;5006188;28;20053;-50
2023/09/30 05:57:36;;;;;;;23.38;8.10;;;11.40;99.90;;;;;;4998153;28;20047;-51
2023/09/30 06:00:28;;;;;;;22.48;7.45;;;11.40;99.90;;;;;;5010652;28;20041;-51
2023/09/30 06:02:52;;;;;;;20.20;8.05;;;11.40;99.90;;;;;;5023527;28;20116;-52
2023/09/30 06:05:30;;;;;;;19.02;7.88;;;11.50;99.90;;;;;;5024536;28;20133;-49
2023/09/30 06:07:56;;;;;;;17.17;7.35;;;11.50;99.90;;;;;;5022820;28;20104;-49
2023/09/30 06:10:22;;;;;;;23.35;7.78;;;11.40;99.90;;;;;;5024051;28;20062;-51
2023/09/30 06:12:49;;;;;;;18.10;7.13;;;11.50;99.90;;;;;;5023367;28;20423;-52
2023/09/30 06:15:16;;;;;;;19.38;7.35;;;11.40;99.90;;;;;;5023904;28;20080;-51
2023/09/30 06:17:42;;;;;;;20.30;7.93;;;11.40;99.90;;;;;;5024004;28;20047;-50
2023/09/30 06:20:15;;;;;;;20.27;6.88;;;11.40;99.90;;;;;;5024607;28;20081;-52
2023/09/30 06:22:51;;;;;;;14.93;7.30;;;11.40;99.90;;;;;;5024428;28;20604;-51
2023/09/30 06:25:17;;;;;;;18.88;7.63;;;11.40;99.90;;;;;;5023873;28;20048;-51
2023/09/30 06:27:47;;;;;;;15.65;7.13;;;11.40;99.90;;;;;;5005542;28;20049;-51
2023/09/30 06:30:17;;;;;;;15.18;6.95;;;11.50;99.90;;;;;;5024127;28;20408;-53
2023/09/30 06:32:43;;;;;;;18.25;7.28;;;11.50;99.90;;;;;;5023819;28;20037;-53
2023/09/30 06:35:12;;;;;;;17.20;7.90;;;11.50;99.90;;;;;;5024235;28;20385;-52
2023/09/30 06:37:41;;;;;;;17.60;7.40;;;12.00;99.90;;;;;;5006095;28;20125;-52
2023/09/30 06:40:08;;;;;;;18.17;7.65;;;11.60;99.90;;;;;;5005589;28;20061;-49
2023/09/30 06:42:35;;;;;;;17.42;7.55;;;11.60;99.90;;;;;;5023179;28;20404;-50
2023/09/30 06:45:05;;;;;;;16.00;7.60;;;11.60;99.90;;;;;;5023715;28;20030;-51
2023/09/30 06:47:33;;;;;;;20.88;7.90;;;11.60;99.90;;;;;;5022304;28;20471;-51
2023/09/30 06:50:01;;;;;;;19.52;8.00;;;11.80;99.90;;;;;;5023543;28;20053;-50
2023/09/30 06:52:27;;;;;;;18.67;7.80;;;11.70;99.90;;;;;;5023204;28;20053;-51
2023/09/30 06:54:53;;;;;;;15.75;8.25;;;11.70;99.90;;;;;;5013742;28;20128;-50
2023/09/30 06:57:19;;;;;;;15.70;8.07;;;11.80;99.90;;;;;;5016984;28;20129;-51
2023/09/30 06:59:45;;;;;;;16.88;8.25;;;11.90;99.90;;;;;;4993841;28;20053;-50
2023/09/30 07:02:10;;;;;;;21.88;7.93;;;11.90;99.90;;;;;;5003553;28;20049;-52
2023/09/30 07:04:36;;;;;;;17.70;7.72;;;11.90;99.90;;;;;;5003220;28;20117;-54
2023/09/30 07:07:02;;;;;;;16.00;7.88;;;12.40;99.90;;;;;;5002913;28;20645;-53
2023/09/30 07:09:28;;;;;;;17.25;7.75;;;12.00;99.90;;;;;;5002538;28;20586;-51
2023/09/30 07:11:54;;;;;;;17.35;8.50;;;12.10;99.90;;;;;;5006034;28;20053;-50
2023/09/30 07:14:19;;;;;;;17.00;8.15;;;12.30;99.90;;;;;;5021646;28;20097;-52
2023/09/30 07:16:45;;;;;;;15.32;8.18;;;12.20;99.90;;;;;;4998699;28;20053;-50
2023/09/30 07:19:11;;;;;;;16.48;8.02;;;12.20;99.90;;;;;;5023535;28;20116;-51
2023/09/30 07:21:37;;;;;;;16.92;8.65;;;12.30;99.90;;;;;;5025006;28;20555;-51
2023/09/30 07:24:03;;;;;;;19.25;7.80;;;12.40;99.90;;;;;;5025628;28;20049;-49
2023/09/30 07:26:29;;;;;;;15.93;8.18;;;12.40;99.90;;;;;;5025001;28;20606;-52
2023/09/30 07:28:56;;;;;;;17.98;8.75;;;12.50;99.90;;;;;;5024958;28;20037;-51
2023/09/30 07:31:23;;;;;;;19.02;9.00;;;12.60;99.90;;;;;;5026377;28;20073;-48
2023/09/30 07:33:49;;;;;;;18.25;9.00;;;12.70;99.90;;;;;;5026821;28;20052;-50
2023/09/30 07:36:14;;;;;;;18.33;8.90;;;12.70;99.90;;;;;;5008482;28;20496;-51
2023/09/30 07:38:40;;;;;;;19.80;9.30;;;12.80;99.90;;;;;;5024691;28;20128;-48
2023/09/30 07:41:06;;;;;;;15.13;8.82;;;12.90;99.90;;;;;;5025606;28;20140;-48
2023/09/30 07:43:31;;;;;;;15.45;8.18;;;12.90;99.90;;;;;;5025285;28;20049;-48
2023/09/30 07:45:57;;;;;;;17.33;8.75;;;13.40;99.90;;;;;;5022285;28;20025;-48
2023/09/30 07:48:25;;;;;;;16.63;8.60;;;13.00;99.90;;;;;;5021247;28;20038;-49
2023/09/30 07:50:50;;;;;;;19.30;8.98;;;13.10;99.90;;;;;;5007210;28;20092;-51
2023/09/30 07:53:16;;;;;;;18.20;8.77;;;13.30;99.90;;;;;;5002137;28;20045;-49
2023/09/30 07:55:41;;;;;;;18.17;9.02;;;13.30;99.90;;;;;;5021129;28;20451;-50
2023/09/30 07:58:07;;;;;;;14.82;7.75;;;13.40;99.90;;;;;;5013044;28;20038;-48
2023/09/30 08:00:33;;;;;;;18.92;9.00;;;13.40;99.90;;;;;;5004898;28;20042;-47
2023/09/30 08:03:00;;;;;;;15.27;8.13;;;13.50;99.90;;;;;;5007944;28;20132;-48
2023/09/30 08:05:26;;;;;;;16.80;8.85;;;13.60;99.90;;;;;;5021842;28;20050;-48
2023/09/30 08:07:52;;;;;;;20.13;9.00;;;13.80;99.90;;;;;;5020704;28;20099;-49
2023/09/30 08:10:18;;;;;;;15.10;7.68;;;13.80;99.90;;;;;;5021677;28;20042;-50
2023/09/30 08:12:48;;;;;;;17.48;8.82;;;13.80;99.90;;;;;;5019303;28;20103;-48
2023/09/30 08:15:14;;;;;;;15.18;8.20;;;14.00;99.90;;;;;;5018559;28;20049;-48
2023/09/30 08:17:40;;;;;;;16.50;8.70;;;14.10;99.90;;;;;;5006120;28;20061;-50
2023/09/30 08:20:06;;;;;;;15.55;8.88;;;14.20;99.90;;;;;;5024361;28;20041;-47
2023/09/30 08:22:32;;;;;;;17.27;9.25;;;14.30;99.90;;;;;;5009628;28;20042;-50
2023/09/30 08:24:57;;;;;;;18.15;8.57;;;14.40;99.90;;;;;;5005780;28;20404;-47
2023/09/30 08:27:26;;;;;;;20.80;9.35;;;14.50;99.90;;;;;;5004412;28;20042;-48
2023/09/30 08:29:52;;;;;;;16.30;8.93;;;14.50;99.90;;;;;;4987022;28;20060;-48
2023/09/30 08:32:17;;;;;;;18.88;8.10;;;14.80;99.90;;;;;;4987637;28;20046;-49
2023/09/30 08:34:43;;;;;;;14.88;8.13;;;14.80;99.90;;;;;;5005498;28;20615;-47
2023/09/30 08:37:09;;;;;;;16.38;7.75;;;14.80;99.90;;;;;;5005690;28;20060;-48
2023/09/30 08:39:40;;;;;;;16.45;7.68;;;15.00;99.90;;;;;;5015753;28;20052;-48
2023/09/30 08:42:10;;;;;;;16.73;7.15;;;15.10;99.90;;;;;;5024620;28;20411;-47
2023/09/30 08:44:38;;;;;;;13.32;6.70;;;15.20;99.90;;;;;;5024611;28;20061;-47
2023/09/30 08:47:05;;;;;;;17.75;6.85;;;15.50;99.90;;;;;;5024019;28;20053;-48
2023/09/30 08:49:38;;;;;;;14.13;6.82;;;15.50;99.90;;;;;;5022935;28;20045;-48
2023/09/30 08:52:05;;;;;;;16.35;6.65;;;15.70;99.90;;;;;;5024427;28;20043;-47
2023/09/30 08:54:31;;;;;;;15.88;6.55;;;15.80;99.90;;;;;;5005548;28;20076;-47
2023/09/30 08:56:57;;;;;;;16.38;6.60;;;15.90;99.90;;;;;;5017695;28;20168;-49
2023/09/30 08:59:25;;;;;;;19.20;5.30;;;16.00;99.90;;;;;;5007136;28;20073;-47
2023/09/30 09:01:51;;;;;;;15.23;5.70;;;16.30;99.90;;;;;;5004501;28;20057;-47
2023/09/30 09:04:17;;;;;;;13.73;4.53;;;16.70;99.90;;;;;;5003937;28;20049;-49
2023/09/30 09:06:44;;;;;;;11.43;4.57;;;17.20;99.90;;;;;;5004753;28;20061;-48
2023/09/30 09:09:17;;;;;;;14.95;5.00;;;17.70;99.90;;;;;;5004161;28;20495;-48
2023/09/30 09:11:46;;;;;;;15.80;4.30;;;18.10;99.90;;;;;;5003443;28;20441;-49
2023/09/30 09:14:12;;;;;;;10.90;4.32;;;18.30;99.90;;;;;;5010722;28;20052;-47
2023/09/30 09:16:54;;;;;;;11.45;4.20;;;18.40;99.90;;;;;;5023558;28;20069;-48
2023/09/30 09:19:21;;;;;;;11.38;4.05;;;18.50;99.90;;;;;;5023858;28;20120;-49
2023/09/30 09:21:58;;;;;;;13.65;4.15;;;18.60;99.90;;;;;;5009527;28;20044;-49
2023/09/30 09:24:28;;;;;;;11.07;4.05;;;18.70;99.90;;;;;;5010615;28;20081;-48
2023/09/30 09:27:04;;;;;;;9.32;3.08;;;18.70;99.90;;;;;;4986409;28;20042;-50
2023/09/30 09:29:30;;;;;;;13.25;3.70;;;18.90;99.90;;;;;;5002663;28;20049;-50
2023/09/30 09:32:07;;;;;;;12.02;3.30;;;19.00;99.90;;;;;;5009532;28;20062;-50
2023/09/30 09:34:33;;;;;;;11.38;3.63;;;19.00;99.90;;;;;;5023139;28;20049;-48
2023/09/30 09:36:59;;;;;;;7.75;2.65;;;19.20;99.90;;;;;;5023257;28;20037;-48
2023/09/30 09:39:31;;;;;;;12.15;3.10;;;19.20;99.90;;;;;;5022624;28;20041;-48
2023/09/30 09:41:57;;;;;;;10.02;3.15;;;19.30;99.90;;;;;;5022068;28;20045;-49
2023/09/30 09:44:25;;;;;;;11.10;3.17;;;19.20;99.90;;;;;;5018602;28;20727;-48
2023/09/30 09:46:51;;;;;;;12.05;2.88;;;19.10;99.90;;;;;;5016280;28;20436;-49
2023/09/30 09:49:17;;;;;;;10.55;2.97;;;19.20;99.90;;;;;;5003839;28;20053;-49
2023/09/30 09:51:48;;;;;;;8.57;2.67;;;19.30;99.90;;;;;;5019745;28;20045;-48
2023/09/30 09:54:15;;;;;;;11.57;2.88;;;19.50;99.90;;;;;;5010976;28;20042;-48
2023/09/30 09:56:45;;;;;;;10.60;2.50;;;19.60;99.90;;;;;;5007541;28;20058;-49
2023/09/30 09:59:14;;;;;;;11.20;3.17;;;19.80;99.90;;;;;;5002711;28;20077;-48
2023/09/30 10:01:41;;;;;;;11.93;3.13;;;19.90;99.90;;;;;;5008719;28;20041;-47
2023/09/30 10:04:07;;;;;;;11.52;2.60;;;19.90;99.90;;;;;;5022153;28;20216;-47
2023/09/30 10:06:38;;;;;;;10.50;2.83;;;20.00;99.90;;;;;;5004812;28;20136;-50
2023/09/30 10:09:09;;;;;;;9.25;2.53;;;20.10;99.90;;;;;;5022846;28;20079;-48
2023/09/30 10:11:35;;;;;;;12.45;2.88;;;20.10;99.90;;;;;;5005009;28;20049;-51
2023/09/30 10:14:03;;;;;;;10.30;2.53;;;19.90;99.90;;;;;;5042675;28;20041;-49
2023/09/30 10:16:35;;;;;;;10.90;2.35;;;20.00;99.90;;;;;;5042597;28;20087;-50
2023/09/30 10:19:18;;;;;;;9.52;2.60;;;20.10;99.90;;;;;;5041758;28;20097;-49
2023/09/30 10:22:21;;;;;;;9.20;2.28;;;20.10;99.90;;;;;;5021860;28;20045;-48
2023/09/30 10:24:49;;;;;;;10.38;2.40;;;20.00;99.90;;;;;;4985480;28;20528;-49
2023/09/30 10:27:33;;;;;;;9.43;2.30;;;19.90;99.90;;;;;;5003054;28;20686;-51
2023/09/30 10:30:15;;;;;;;7.65;2.40;;;19.80;99.90;;;;;;5002820;28;20077;-49
2023/09/30 10:33:08;;;;;;;9.65;2.90;;;19.90;99.90;;;;;;5010752;28;20054;-49
2023/09/30 10:35:35;;;;;;;6.93;2.05;;;19.90;99.90;;;;;;4981712;28;20093;-50
2023/09/30 10:38:22;;;;;;;8.18;1.80;;;19.80;99.90;;;;;;5002727;28;20496;-48
2023/09/30 10:40:51;;;;;;;7.88;2.10;;;19.50;99.90;;;;;;5019534;28;20095;-52
2023/09/30 10:43:43;;;;;;;9.15;2.45;;;19.30;99.90;;;;;;5008120;28;20396;-50
2023/09/30 10:46:30;;;;;;;6.40;1.92;;;19.10;99.90;;;;;;5012427;28;20068;-50
2023/09/30 10:48:57;;;;;;;10.10;2.30;;;18.90;99.90;;;;;;5002216;28;20044;-49
2023/09/30 10:51:22;;;;;;;7.50;2.10;;;19.00;99.90;;;;;;5002672;28;20108;-52
2023/09/30 10:53:56;;;;;;;7.07;2.10;;;19.20;99.90;;;;;;5002657;28;20152;-52
2023/09/30 10:56:22;;;;;;;10.60;2.10;;;19.40;99.90;;;;;;5003923;28;20047;-51
2023/09/30 10:58:52;;;;;;;7.45;1.73;;;19.30;99.90;;;;;;4984053;28;20045;-50
2023/09/30 11:01:20;;;;;;;13.10;2.17;;;19.20;99.90;;;;;;5002811;28;20053;-52
2023/09/30 11:03:47;;;;;;;8.93;1.90;;;19.30;99.90;;;;;;5002723;28;20046;-51
2023/09/30 11:06:17;;;;;;;8.75;2.20;;;19.50;99.90;;;;;;5002242;28;20055;-51
2023/09/30 11:08:46;;;;;;;7.15;1.65;;;19.60;99.90;;;;;;4981123;28;20054;-50
2023/09/30 11:11:14;;;;;;;7.07;2.00;;;19.60;99.90;;;;;;4982390;28;20140;-51
2023/09/30 11:13:40;;;;;;;8.38;2.30;;;19.70;99.90;;;;;;4981800;28;20452;-50
2023/09/30 11:16:06;;;;;;;11.55;2.72;;;19.90;99.90;;;;;;4982386;28;20042;-52
2023/09/30 11:18:31;;;;;;;8.20;2.00;;;20.10;99.90;;;;;;4982761;28;20097;-49
2023/09/30 11:21:09;;;;;;;10.02;1.98;;;20.10;99.90;;;;;;4981925;28;20524;-47
2023/09/30 11:23:35;;;;;;;10.25;1.83;;;19.90;99.90;;;;;;4982111;28;20416;-49
2023/09/30 11:26:01;;;;;;;9.07;2.17;;;19.70;99.90;;;;;;4983397;28;20125;-48
2023/09/30 11:28:42;;;;;;;7.05;1.67;;;19.60;99.90;;;;;;4996351;28;20456;-51
2023/09/30 11:31:10;;;;;;;10.93;1.60;;;19.80;99.90;;;;;;4983419;28;20038;-51
2023/09/30 11:33:57;;;;;;;8.65;2.00;;;20.10;99.90;;;;;;4981817;28;20433;-50
2023/09/30 11:36:23;;;;;;;7.32;1.92;;;20.30;99.90;;;;;;4982906;28;20398;-48
2023/09/30 11:38:52;;;;;;;6.93;2.05;;;20.40;99.90;;;;;;4983890;28;20043;-50
2023/09/30 11:41:18;;;;;;;9.88;2.00;;;20.60;99.90;;;;;;4982852;28;20445;-48
2023/09/30 11:44:04;;;;;;;10.25;2.67;;;20.70;99.90;;;;;;4987537;28;20054;-51
2023/09/30 11:46:33;;;;;;;7.57;1.60;;;20.70;99.90;;;;;;4992409;28;20057;-49
2023/09/30 11:49:04;;;;;;;8.48;1.73;;;20.50;99.90;;;;;;4983446;28;20050;-49
2023/09/30 11:51:45;;;;;;;10.27;2.15;;;20.60;99.90;;;;;;4983155;28;20089;-51
2023/09/30 11:54:11;;;;;;;7.22;1.90;;;20.60;99.90;;;;;;4992097;28;20053;-47
2023/09/30 11:56:37;;;;;;;7.40;1.80;;;20.60;99.90;;;;;;4995948;28;20061;-51
2023/09/30 11:59:04;;;;;;;7.53;1.88;;;20.60;99.90;;;;;;4989154;28;20047;-55
2023/09/30 12:01:32;;;;;;;9.50;2.15;;;20.70;99.90;;;;;;4999976;28;20405;-50
2023/09/30 12:03:58;;;;;;;5.75;1.73;;;20.70;99.90;;;;;;4991715;28;20046;-52
2023/09/30 12:06:24;;;;;;;7.10;1.67;;;20.70;99.90;;;;;;5005489;28;20137;-56
2023/09/30 12:08:51;;;;;;;9.00;2.00;;;20.70;99.90;;;;;;5020062;28;20054;-53
2023/09/30 12:11:20;;;;;;;5.55;1.60;;;20.60;99.90;;;;;;5025777;28;20049;-55
2023/09/30 12:13:48;;;;;;;7.80;1.85;;;20.60;99.90;;;;;;5007347;28;20053;-54
2023/09/30 12:16:15;;;;;;;5.68;1.52;;;20.70;99.90;;;;;;5025855;28;20584;-56
2023/09/30 12:18:41;;;;;;;6.32;1.80;;;20.70;99.90;;;;;;5006927;28;20107;-52
2023/09/30 12:21:11;;;;;;;6.10;1.60;;;20.70;99.90;;;;;;5025403;28;20081;-52
2023/09/30 12:23:37;;;;;;;8.32;1.88;;;20.80;99.90;;;;;;5025576;28;20552;-56
2023/09/30 12:26:06;;;;;;;8.30;1.98;;;20.80;99.90;;;;;;5024370;28;20037;-56
2023/09/30 12:28:35;;;;;;;8.50;1.90;;;20.60;99.00;;;;;;5006405;28;20045;-55
2023/09/30 12:31:04;;;;;;;9.23;1.85;;;20.20;99.60;;;;;;5025824;28;20037;-57
2023/09/30 12:33:32;;;;;;;7.78;2.28;;;20.00;99.90;;;;;;5024481;28;20052;-54
2023/09/30 12:35:58;;;;;;;10.30;2.00;;;19.70;99.90;;;;;;5025808;28;20455;-57
2023/09/30 12:38:25;;;;;;;8.68;2.00;;;19.50;99.90;;;;;;5024912;28;20041;-57
2023/09/30 12:40:53;;;;;;;7.18;1.98;;;19.40;99.90;;;;;;5024871;28;20044;-56